createdAt,value
2019-05-23T00:04:18.489Z,0.00
2019-05-23T00:19:18.711Z,0.00
2019-05-23T00:34:18.779Z,0.00
2019-05-23T00:49:18.998Z,0.00
2019-05-23T01:04:19.132Z,0.00
2019-05-23T01:19:19.310Z,0.00
2019-05-23T01:34:19.476Z,0.00
2019-05-23T01:49:19.642Z,0.00
2019-05-23T02:04:19.825Z,0.00
2019-05-23T02:19:20.053Z,0.00
2019-05-23T02:34:20.178Z,12.00
2019-05-23T02:49:20.468Z,72.00
2019-05-23T03:04:20.608Z,268.00
2019-05-23T03:19:20.710Z,588.00
2019-05-23T03:34:20.993Z,956.00
2019-05-23T03:49:21.197Z,1376.00
2019-05-23T04:04:21.485Z,1880.00
2019-05-23T04:19:21.661Z,3336.00
2019-05-23T04:34:21.810Z,3968.00
2019-05-23T04:49:22.022Z,4768.00
2019-05-23T05:04:22.175Z,5432.00
2019-05-23T05:19:22.338Z,5784.00
2019-05-23T05:34:22.510Z,6196.00
2019-05-23T05:49:22.729Z,5636.00
2019-05-23T06:04:22.898Z,7000.00
2019-05-23T06:19:23.062Z,8628.00
2019-05-23T06:34:23.253Z,9276.00
2019-05-23T06:49:23.420Z,12148.00
2019-05-23T07:04:23.546Z,16160.00
2019-05-23T07:19:23.755Z,16928.00
2019-05-23T07:34:23.960Z,25344.00
2019-05-23T07:49:24.177Z,32960.00
2019-05-23T08:04:24.948Z,34912.00
2019-05-23T08:19:25.609Z,35872.00
2019-05-23T08:34:40.776Z,42656.00
2019-05-23T08:49:31.022Z,44320.00
2019-05-23T09:04:31.239Z,46400.00
2019-05-23T09:19:34.301Z,53088.00
2019-05-23T09:34:35.882Z,51776.00
2019-05-23T09:49:36.074Z,50144.00
2019-05-23T10:04:36.310Z,51872.00
2019-05-23T10:19:36.512Z,55264.00
2019-05-23T10:34:36.604Z,49440.00
2019-05-23T10:49:36.729Z,43552.00
2019-05-23T11:04:36.860Z,38816.00
2019-05-23T11:19:37.138Z,49504.00
2019-05-23T11:34:37.216Z,33440.00
2019-05-23T11:49:37.923Z,67520.00
2019-05-23T12:04:38.082Z,65568.00
2019-05-23T12:19:38.189Z,61920.00
2019-05-23T12:34:38.270Z,41440.00
2019-05-23T12:49:38.465Z,70176.00
2019-05-23T13:04:38.590Z,34528.00
2019-05-23T13:19:38.767Z,49120.00
2019-05-23T13:34:38.923Z,32864.00
2019-05-23T13:49:39.155Z,30720.00
2019-05-23T14:04:39.269Z,36032.00
2019-05-23T14:19:39.514Z,36032.00
2019-05-23T14:34:39.706Z,12752.00
2019-05-23T14:49:39.881Z,14552.00
2019-05-23T15:04:40.002Z,16896.00
2019-05-23T15:19:44.858Z,14112.00
2019-05-23T15:34:45.236Z,10596.00
2019-05-23T15:49:45.473Z,8348.00
2019-05-23T16:04:45.615Z,8340.00
2019-05-23T16:19:45.833Z,8840.00
2019-05-23T16:34:46.037Z,5724.00
2019-05-23T16:49:46.268Z,6172.00
2019-05-23T17:04:46.439Z,5216.00
2019-05-23T17:19:46.596Z,4064.00
2019-05-23T17:34:46.766Z,3388.00
2019-05-23T17:49:46.914Z,3008.00
2019-05-23T18:04:47.158Z,2544.00
2019-05-23T18:19:47.175Z,1896.00
2019-05-23T18:34:47.403Z,1140.00
2019-05-23T18:49:47.519Z,540.00
2019-05-23T19:04:47.716Z,196.00
2019-05-23T19:19:47.926Z,56.00
2019-05-23T19:34:48.114Z,8.00
2019-05-23T19:49:48.298Z,0.00
2019-05-23T20:04:48.433Z,0.00
2019-05-23T20:19:50.536Z,0.00
2019-05-23T20:34:50.840Z,0.00
2019-05-23T20:49:51.014Z,0.00
2019-05-23T21:04:51.729Z,0.00
2019-05-23T21:19:51.936Z,0.00
2019-05-23T21:34:52.159Z,0.00
2019-05-23T21:49:52.343Z,0.00
2019-05-23T22:04:52.574Z,0.00
2019-05-23T22:19:52.794Z,0.00
2019-05-23T22:34:52.887Z,0.00
2019-05-23T22:49:53.088Z,0.00
2019-05-23T23:04:53.318Z,0.00
2019-05-23T23:19:53.430Z,0.00
2019-05-23T23:34:53.542Z,0.00
2019-05-23T23:49:53.735Z,0.00
